createdAt,value
2022-10-06T00:00:45.138Z,16.63
2022-10-06T00:03:11.569Z,16.50
2022-10-06T00:05:38.067Z,16.47
2022-10-06T00:08:04.774Z,16.46
2022-10-06T00:10:31.185Z,16.51
2022-10-06T00:12:57.592Z,16.55
2022-10-06T00:15:25.874Z,16.55
2022-10-06T00:17:52.294Z,16.50
2022-10-06T00:20:18.965Z,16.42
2022-10-06T00:22:46.845Z,16.36
2022-10-06T00:25:14.974Z,16.33
2022-10-06T00:27:47.137Z,16.47
2022-10-06T00:30:20.806Z,16.52
2022-10-06T00:32:56.047Z,16.65
2022-10-06T00:35:23.171Z,16.75
2022-10-06T00:37:49.653Z,16.88
2022-10-06T00:40:16.089Z,16.89
2022-10-06T00:42:56.446Z,16.91
2022-10-06T00:45:31.988Z,16.95
2022-10-06T00:48:00.441Z,17.05
2022-10-06T00:50:26.881Z,17.26
2022-10-06T00:52:55.595Z,17.40
2022-10-06T00:55:22.438Z,17.40
2022-10-06T00:57:49.113Z,17.40
2022-10-06T01:00:15.607Z,17.40
2022-10-06T01:02:48.581Z,17.38
2022-10-06T01:05:18.091Z,17.41
2022-10-06T01:07:44.465Z,17.43
2022-10-06T01:10:10.871Z,17.23
2022-10-06T01:12:37.253Z,16.68
2022-10-06T01:15:03.902Z,16.31
2022-10-06T01:17:36.460Z,16.03
2022-10-06T01:20:02.899Z,15.85
2022-10-06T01:22:30.694Z,15.54
2022-10-06T01:24:57.103Z,15.33
2022-10-06T01:27:23.848Z,15.04
2022-10-06T01:29:53.946Z,14.82
2022-10-06T01:32:21.175Z,14.64
2022-10-06T01:34:47.554Z,14.59
2022-10-06T01:37:14.065Z,14.47
2022-10-06T01:39:41.012Z,14.40
2022-10-06T01:42:07.424Z,14.39
2022-10-06T01:44:33.793Z,14.40
2022-10-06T01:47:00.236Z,14.30
2022-10-06T01:49:26.600Z,14.26
2022-10-06T01:51:52.981Z,14.14
2022-10-06T01:54:19.361Z,14.15
2022-10-06T01:56:45.739Z,14.23
2022-10-06T01:59:12.117Z,14.21
2022-10-06T02:01:38.495Z,14.19
2022-10-06T02:04:04.973Z,14.18
2022-10-06T02:06:31.482Z,14.11
2022-10-06T02:08:57.964Z,14.12
2022-10-06T02:11:24.334Z,14.03
2022-10-06T02:13:50.884Z,14.03
2022-10-06T02:16:17.382Z,14.00
2022-10-06T02:18:43.984Z,13.92
2022-10-06T02:21:20.899Z,13.92
2022-10-06T02:23:48.022Z,13.87
2022-10-06T02:26:17.298Z,13.88
2022-10-06T02:28:47.014Z,13.83
2022-10-06T02:31:13.876Z,13.83
2022-10-06T02:33:40.526Z,13.83
2022-10-06T02:36:07.421Z,13.86
2022-10-06T02:38:34.191Z,13.78
2022-10-06T02:41:01.519Z,13.84
2022-10-06T02:43:29.543Z,13.78
2022-10-06T02:45:56.470Z,13.76
2022-10-06T02:48:24.350Z,13.76
2022-10-06T02:51:06.890Z,13.80
2022-10-06T02:53:34.449Z,13.80
2022-10-06T02:56:08.239Z,13.82
2022-10-06T02:58:34.731Z,13.80
2022-10-06T03:01:05.471Z,13.78
2022-10-06T03:03:32.268Z,13.80
2022-10-06T03:06:00.652Z,13.79
2022-10-06T03:08:27.535Z,13.79
2022-10-06T03:11:03.284Z,13.87
2022-10-06T03:13:30.248Z,13.82
2022-10-06T03:15:57.190Z,13.79
2022-10-06T03:18:23.686Z,13.75
2022-10-06T03:20:50.168Z,13.74
2022-10-06T03:23:16.547Z,13.71
2022-10-06T03:25:42.941Z,13.68
2022-10-06T03:28:09.358Z,13.70
2022-10-06T03:30:36.161Z,13.68
2022-10-06T03:33:02.523Z,13.70
2022-10-06T03:35:29.069Z,13.65
2022-10-06T03:37:55.903Z,13.66
2022-10-06T03:40:22.311Z,13.62
2022-10-06T03:42:48.669Z,13.63
2022-10-06T03:45:15.083Z,13.64
2022-10-06T03:47:41.467Z,13.67
2022-10-06T03:50:08.262Z,13.69
2022-10-06T03:52:34.643Z,13.68
2022-10-06T03:55:01.053Z,13.65
2022-10-06T03:57:27.501Z,13.61
2022-10-06T03:59:53.981Z,13.59
2022-10-06T04:02:20.482Z,13.60
2022-10-06T04:04:46.888Z,13.54
2022-10-06T04:07:13.257Z,13.49
2022-10-06T04:09:39.682Z,13.45
2022-10-06T04:12:06.101Z,13.42
2022-10-06T04:14:32.555Z,13.38
2022-10-06T04:16:59.327Z,13.35
2022-10-06T04:19:25.768Z,13.35
2022-10-06T04:21:52.325Z,13.34
2022-10-06T04:24:18.738Z,13.30
2022-10-06T04:26:46.332Z,13.25
2022-10-06T04:29:13.134Z,13.25
2022-10-06T04:31:41.004Z,13.26
2022-10-06T04:34:07.749Z,13.21
2022-10-06T04:36:40.796Z,13.23
2022-10-06T04:39:08.077Z,13.18
2022-10-06T04:41:36.116Z,13.15
2022-10-06T04:44:02.737Z,13.12
2022-10-06T04:46:45.457Z,13.10
2022-10-06T04:49:19.054Z,13.10
2022-10-06T04:51:46.477Z,13.05
2022-10-06T04:54:12.926Z,13.08
2022-10-06T04:56:39.320Z,13.11
2022-10-06T04:59:05.751Z,13.10
2022-10-06T05:01:36.319Z,13.07
2022-10-06T05:04:03.239Z,13.09
2022-10-06T05:06:34.578Z,13.08
2022-10-06T05:09:03.395Z,13.07
2022-10-06T05:11:29.900Z,13.05
2022-10-06T05:13:56.978Z,13.02
2022-10-06T05:16:24.366Z,13.00
2022-10-06T05:18:50.859Z,12.99
2022-10-06T05:21:18.955Z,13.01
2022-10-06T05:23:45.580Z,13.07
2022-10-06T05:26:12.921Z,13.02
2022-10-06T05:28:39.526Z,13.03
2022-10-06T05:31:11.854Z,13.04
2022-10-06T05:33:38.596Z,12.99
2022-10-06T05:36:07.182Z,12.94
2022-10-06T05:38:33.678Z,12.97
2022-10-06T05:41:32.981Z,12.95
2022-10-06T05:43:59.531Z,12.99
2022-10-06T05:46:28.377Z,13.04
2022-10-06T05:48:56.458Z,13.08
2022-10-06T05:51:30.083Z,13.10
2022-10-06T05:53:57.210Z,13.09
2022-10-06T05:56:25.098Z,13.14
2022-10-06T05:58:52.758Z,13.15
2022-10-06T06:01:27.235Z,13.19
2022-10-06T06:04:00.397Z,13.22
2022-10-06T06:06:31.684Z,13.27
2022-10-06T06:08:58.924Z,13.28
2022-10-06T06:11:27.615Z,13.29
2022-10-06T06:14:01.159Z,13.36
2022-10-06T06:16:29.090Z,13.38
2022-10-06T06:18:55.491Z,13.40
2022-10-06T06:21:21.868Z,13.39
2022-10-06T06:23:48.596Z,13.38
2022-10-06T06:26:20.166Z,13.37
2022-10-06T06:28:47.631Z,13.34
2022-10-06T06:31:20.166Z,13.35
2022-10-06T06:33:47.545Z,13.38
2022-10-06T06:36:14.137Z,13.38
2022-10-06T06:38:40.846Z,13.36
2022-10-06T06:41:15.223Z,13.46
2022-10-06T06:43:42.414Z,13.50
2022-10-06T06:46:08.897Z,13.48
2022-10-06T06:48:38.307Z,13.48
2022-10-06T06:51:04.944Z,13.40
2022-10-06T06:53:31.678Z,13.38
2022-10-06T06:55:58.056Z,13.34
2022-10-06T06:58:24.451Z,13.34
2022-10-06T07:00:50.865Z,13.38
2022-10-06T07:03:38.459Z,13.39
2022-10-06T07:06:09.364Z,13.43
2022-10-06T07:08:42.631Z,13.45
2022-10-06T07:11:17.424Z,13.56
2022-10-06T07:13:44.268Z,13.54
2022-10-06T07:16:33.977Z,13.60
2022-10-06T07:19:23.845Z,13.64
2022-10-06T07:22:20.529Z,13.71
2022-10-06T07:25:05.776Z,13.73
2022-10-06T07:27:42.399Z,13.77
2022-10-06T07:30:20.215Z,13.82
2022-10-06T07:32:47.264Z,13.79
2022-10-06T07:35:13.685Z,13.79
2022-10-06T07:37:40.602Z,13.84
2022-10-06T07:40:07.744Z,13.94
2022-10-06T07:42:51.724Z,13.90
2022-10-06T07:45:46.265Z,13.85
2022-10-06T07:48:18.105Z,13.88
2022-10-06T07:50:45.883Z,13.93
2022-10-06T07:53:12.663Z,13.87
2022-10-06T07:55:40.182Z,13.87
2022-10-06T07:58:33.026Z,13.92
2022-10-06T08:01:10.338Z,13.91
2022-10-06T08:03:37.368Z,13.89
2022-10-06T08:06:04.108Z,13.90
2022-10-06T08:08:31.329Z,13.95
2022-10-06T08:11:01.391Z,13.94
2022-10-06T08:13:28.376Z,14.01
2022-10-06T08:15:56.598Z,14.16
2022-10-06T08:18:45.550Z,14.25
2022-10-06T08:21:13.683Z,14.28
2022-10-06T08:23:42.262Z,14.25
2022-10-06T08:26:09.896Z,14.23
2022-10-06T08:28:36.719Z,14.24
2022-10-06T08:31:04.810Z,14.24
2022-10-06T08:33:31.270Z,14.32
2022-10-06T08:36:08.644Z,14.38
2022-10-06T08:38:36.854Z,14.37
2022-10-06T08:41:16.490Z,14.41
2022-10-06T08:43:43.579Z,14.41
2022-10-06T08:46:14.323Z,14.46
2022-10-06T08:48:40.728Z,14.46
2022-10-06T08:51:31.695Z,14.45
2022-10-06T08:54:16.851Z,14.42
2022-10-06T08:57:11.801Z,14.50
2022-10-06T08:59:38.187Z,14.44
2022-10-06T09:02:15.697Z,14.40
2022-10-06T09:04:42.388Z,14.41
2022-10-06T09:07:14.725Z,14.40
2022-10-06T09:10:02.421Z,14.47
2022-10-06T09:12:41.257Z,14.52
2022-10-06T09:15:16.656Z,14.60
2022-10-06T09:17:49.848Z,14.69
2022-10-06T09:20:25.974Z,14.77
2022-10-06T09:22:52.434Z,14.76
2022-10-06T09:25:21.334Z,14.77
2022-10-06T09:27:50.579Z,14.91
2022-10-06T09:30:17.286Z,14.85
2022-10-06T09:32:46.567Z,14.92
2022-10-06T09:35:25.825Z,14.94
2022-10-06T09:38:08.184Z,15.09
2022-10-06T09:40:54.518Z,15.18
2022-10-06T09:43:28.166Z,15.17
2022-10-06T09:45:55.248Z,15.17
2022-10-06T09:48:25.558Z,15.17
2022-10-06T09:51:14.453Z,15.22
2022-10-06T09:53:41.848Z,15.31
2022-10-06T09:56:12.521Z,15.40
2022-10-06T09:58:39.506Z,15.53
2022-10-06T10:01:07.143Z,15.59
2022-10-06T10:04:21.930Z,15.86
2022-10-06T10:06:48.478Z,15.87
2022-10-06T10:09:22.284Z,15.95
2022-10-06T10:12:26.043Z,15.87
2022-10-06T10:14:53.174Z,15.95
2022-10-06T10:17:22.367Z,16.01
2022-10-06T10:19:55.825Z,15.96
2022-10-06T10:22:30.953Z,15.83
2022-10-06T10:25:19.418Z,15.78
2022-10-06T10:27:54.671Z,15.79
2022-10-06T10:30:21.114Z,15.97
2022-10-06T10:33:12.103Z,16.04
2022-10-06T10:35:41.650Z,16.22
2022-10-06T10:38:21.322Z,16.35
2022-10-06T10:40:48.857Z,16.57
2022-10-06T10:43:43.062Z,16.42
2022-10-06T10:46:22.402Z,16.39
2022-10-06T10:48:55.310Z,16.37
2022-10-06T10:51:30.650Z,16.54
2022-10-06T10:54:09.586Z,16.54
2022-10-06T10:56:35.970Z,16.76
2022-10-06T10:59:15.357Z,16.80
2022-10-06T11:01:45.983Z,16.89
2022-10-06T11:04:12.571Z,16.94
2022-10-06T11:07:03.422Z,17.18
2022-10-06T11:09:57.332Z,17.05
2022-10-06T11:12:39.415Z,16.84
2022-10-06T11:15:17.905Z,17.11
2022-10-06T11:17:44.853Z,17.31
2022-10-06T11:20:36.769Z,17.79
2022-10-06T11:23:12.420Z,18.02
2022-10-06T11:25:48.059Z,18.38
2022-10-06T11:28:37.204Z,18.47
2022-10-06T11:31:07.846Z,18.57
2022-10-06T11:33:43.370Z,18.72
2022-10-06T11:36:13.844Z,18.64
2022-10-06T11:38:42.688Z,18.83
2022-10-06T11:41:23.791Z,18.89
2022-10-06T11:44:00.244Z,18.56
2022-10-06T11:46:31.791Z,18.32
2022-10-06T11:49:30.171Z,18.41
2022-10-06T11:52:08.479Z,18.74
2022-10-06T11:54:44.681Z,18.93
2022-10-06T11:57:31.528Z,18.99
2022-10-06T12:00:16.176Z,19.04
2022-10-06T12:02:44.021Z,19.31
2022-10-06T12:05:36.315Z,19.33
2022-10-06T12:07:57.562Z,19.27
2022-10-06T12:10:29.977Z,19.23
2022-10-06T12:14:18.839Z,19.25
2022-10-06T12:19:08.088Z,19.30
2022-10-06T12:21:44.845Z,19.48
2022-10-06T12:24:29.488Z,19.26
2022-10-06T12:27:45.372Z,19.63
2022-10-06T12:30:24.687Z,19.56
2022-10-06T12:32:55.494Z,19.52
2022-10-06T12:35:29.700Z,19.63
2022-10-06T12:38:05.813Z,19.83
2022-10-06T12:40:38.359Z,20.08
2022-10-06T12:43:20.335Z,19.92
2022-10-06T12:45:46.797Z,20.06
2022-10-06T12:48:35.210Z,20.02
2022-10-06T12:51:12.476Z,19.72
2022-10-06T12:53:57.186Z,19.93
2022-10-06T12:56:39.474Z,20.03
2022-10-06T12:59:35.073Z,19.86
2022-10-06T13:02:02.907Z,20.15
2022-10-06T13:04:36.880Z,20.14
2022-10-06T13:07:08.613Z,19.69
2022-10-06T13:09:35.478Z,19.11
2022-10-06T13:12:26.289Z,19.62
2022-10-06T13:15:40.126Z,19.85
2022-10-06T13:18:14.272Z,20.07
2022-10-06T13:20:50.130Z,20.21
2022-10-06T13:23:25.566Z,20.34
2022-10-06T13:25:59.303Z,20.20
2022-10-06T13:28:28.162Z,20.22
2022-10-06T13:30:58.633Z,20.18
2022-10-06T13:33:28.712Z,19.87
2022-10-06T13:35:55.246Z,19.83
2022-10-06T13:38:21.727Z,19.66
2022-10-06T13:41:10.382Z,19.65
2022-10-06T13:43:45.152Z,19.40
2022-10-06T13:46:14.013Z,19.55
2022-10-06T13:48:45.856Z,19.85
2022-10-06T13:51:17.486Z,20.08
2022-10-06T13:53:44.954Z,20.01
2022-10-06T13:56:43.968Z,20.01
2022-10-06T13:59:16.096Z,19.91
2022-10-06T14:01:42.759Z,20.20
2022-10-06T14:04:18.185Z,20.22
2022-10-06T14:06:55.621Z,19.96
2022-10-06T14:09:26.946Z,19.58
2022-10-06T14:11:53.932Z,19.87
2022-10-06T14:14:20.378Z,20.15
2022-10-06T14:16:52.829Z,20.05
2022-10-06T14:19:36.815Z,19.82
2022-10-06T14:22:04.269Z,19.83
2022-10-06T14:24:34.029Z,19.61
2022-10-06T14:27:01.669Z,19.70
2022-10-06T14:29:28.238Z,19.72
2022-10-06T14:31:54.728Z,19.81
2022-10-06T14:34:21.640Z,19.92
2022-10-06T14:36:51.403Z,20.01
2022-10-06T14:39:18.185Z,19.91
2022-10-06T14:41:45.449Z,20.02
2022-10-06T14:44:13.005Z,19.73
2022-10-06T14:46:40.079Z,19.77
2022-10-06T14:49:13.922Z,19.86
2022-10-06T14:51:41.552Z,19.85
2022-10-06T14:54:08.997Z,19.62
2022-10-06T14:56:37.288Z,19.83
2022-10-06T14:59:05.721Z,20.08
2022-10-06T15:01:33.602Z,19.99
2022-10-06T15:04:02.372Z,20.02
2022-10-06T15:06:47.516Z,19.79
2022-10-06T15:09:14.007Z,19.48
2022-10-06T15:11:40.490Z,19.77
2022-10-06T15:14:08.570Z,19.52
2022-10-06T15:16:37.343Z,19.36
2022-10-06T15:19:05.460Z,19.21
2022-10-06T15:21:35.133Z,19.04
2022-10-06T15:24:02.744Z,18.92
2022-10-06T15:26:48.067Z,18.80
2022-10-06T15:29:14.668Z,18.80
2022-10-06T15:31:45.351Z,18.76
2022-10-06T15:34:13.152Z,18.53
2022-10-06T15:36:40.812Z,18.49
2022-10-06T15:39:08.945Z,18.45
2022-10-06T15:41:35.823Z,18.33
2022-10-06T15:44:03.065Z,18.35
2022-10-06T15:46:34.668Z,18.22
2022-10-06T15:49:05.055Z,18.08
2022-10-06T15:51:42.840Z,18.08
2022-10-06T15:54:10.534Z,17.80
2022-10-06T15:56:38.033Z,17.74
2022-10-06T15:59:05.426Z,17.76
2022-10-06T16:01:32.312Z,17.69
2022-10-06T16:04:01.841Z,17.64
2022-10-06T16:06:40.221Z,17.42
2022-10-06T16:09:08.445Z,17.26
2022-10-06T16:11:34.844Z,17.18
2022-10-06T16:14:01.266Z,17.12
2022-10-06T16:16:27.738Z,17.18
2022-10-06T16:18:54.207Z,17.06
2022-10-06T16:21:20.583Z,17.02
2022-10-06T16:23:46.981Z,16.87
2022-10-06T16:26:13.372Z,16.77
2022-10-06T16:28:39.807Z,16.73
2022-10-06T16:31:06.288Z,16.69
2022-10-06T16:33:32.739Z,16.67
2022-10-06T16:35:59.282Z,16.61
2022-10-06T16:38:25.733Z,16.48
2022-10-06T16:40:58.973Z,16.31
2022-10-06T16:43:35.021Z,16.13
2022-10-06T16:46:03.390Z,16.02
2022-10-06T16:48:30.892Z,15.83
2022-10-06T16:51:08.204Z,15.63
2022-10-06T16:53:48.087Z,15.31
2022-10-06T16:56:20.563Z,14.92
2022-10-06T16:58:48.775Z,14.71
2022-10-06T17:01:15.668Z,14.48
2022-10-06T17:03:43.953Z,14.53
2022-10-06T17:06:14.772Z,14.42
2022-10-06T17:08:41.294Z,14.24
2022-10-06T17:11:15.988Z,14.10
2022-10-06T17:13:43.644Z,13.94
2022-10-06T17:16:12.248Z,13.82
2022-10-06T17:18:38.875Z,13.69
2022-10-06T17:21:25.827Z,13.57
2022-10-06T17:23:55.968Z,13.59
2022-10-06T17:26:23.517Z,13.77
2022-10-06T17:28:51.857Z,14.05
2022-10-06T17:31:20.084Z,14.16
2022-10-06T17:33:47.456Z,14.20
2022-10-06T17:36:15.287Z,14.05
2022-10-06T17:38:48.615Z,13.92
2022-10-06T17:41:22.793Z,13.82
2022-10-06T17:43:50.790Z,13.67
2022-10-06T17:46:20.033Z,13.38
2022-10-06T17:48:48.527Z,13.20
2022-10-06T17:51:16.492Z,13.03
2022-10-06T17:53:46.308Z,12.84
2022-10-06T17:56:13.828Z,12.67
2022-10-06T17:58:41.775Z,12.59
2022-10-06T18:01:11.011Z,12.55
2022-10-06T18:03:38.439Z,12.55
2022-10-06T18:06:05.247Z,12.49
2022-10-06T18:08:32.082Z,12.40
2022-10-06T18:11:20.144Z,12.34
2022-10-06T18:13:47.956Z,12.23
2022-10-06T18:16:20.393Z,12.11
2022-10-06T18:18:47.624Z,11.98
2022-10-06T18:21:17.155Z,11.93
2022-10-06T18:23:43.795Z,11.91
2022-10-06T18:26:12.852Z,11.82
2022-10-06T18:28:42.128Z,11.71
2022-10-06T18:31:08.549Z,11.64
2022-10-06T18:36:23.883Z,11.57
2022-10-06T18:38:52.545Z,11.53
2022-10-06T18:41:19.754Z,11.51
2022-10-06T18:43:46.151Z,11.45
2022-10-06T18:46:31.813Z,11.40
2022-10-06T18:49:00.133Z,11.38
2022-10-06T18:51:31.728Z,11.34
2022-10-06T18:53:58.960Z,11.27
2022-10-06T18:56:29.871Z,11.23
2022-10-06T18:58:58.345Z,11.17
2022-10-06T19:01:26.287Z,11.12
2022-10-06T19:03:56.855Z,11.07
2022-10-06T19:06:24.181Z,10.99
2022-10-06T19:08:54.200Z,10.95
2022-10-06T19:11:39.215Z,10.89
2022-10-06T19:14:06.323Z,10.80
2022-10-06T19:16:32.992Z,10.73
2022-10-06T19:18:59.580Z,10.87
2022-10-06T19:21:26.004Z,10.93
2022-10-06T19:23:52.425Z,10.94
2022-10-06T19:26:22.575Z,10.89
2022-10-06T19:28:50.676Z,10.82
2022-10-06T19:31:19.844Z,10.77
2022-10-06T19:33:47.312Z,10.71
2022-10-06T19:36:14.044Z,10.65
2022-10-06T19:38:40.527Z,10.70
2022-10-06T19:41:25.323Z,10.67
2022-10-06T19:43:51.884Z,10.68
2022-10-06T19:46:18.923Z,10.55
2022-10-06T19:48:45.366Z,10.43
2022-10-06T19:51:16.487Z,10.38
2022-10-06T19:53:48.477Z,10.34
2022-10-06T19:56:15.104Z,10.32
2022-10-06T19:58:41.500Z,10.29
2022-10-06T20:01:07.934Z,10.24
2022-10-06T20:03:39.799Z,10.29
2022-10-06T20:06:12.045Z,10.28
2022-10-06T20:08:39.191Z,10.31
2022-10-06T20:11:07.523Z,10.24
2022-10-06T20:13:38.298Z,10.24
2022-10-06T20:16:08.421Z,10.14
2022-10-06T20:18:36.357Z,10.13
2022-10-06T20:21:03.519Z,10.15
2022-10-06T20:23:29.894Z,10.18
2022-10-06T20:25:56.277Z,10.19
2022-10-06T20:28:22.880Z,10.14
2022-10-06T20:30:50.202Z,10.13
2022-10-06T20:33:16.653Z,10.08
2022-10-06T20:35:43.108Z,10.02
2022-10-06T20:38:09.657Z,9.93
2022-10-06T20:40:48.982Z,9.89
2022-10-06T20:43:15.528Z,9.84
2022-10-06T20:45:41.922Z,9.84
2022-10-06T20:48:08.310Z,9.84
2022-10-06T20:50:34.674Z,9.84
2022-10-06T20:53:01.204Z,9.78
2022-10-06T20:55:27.603Z,9.74
2022-10-06T20:57:54.828Z,9.74
2022-10-06T21:00:23.994Z,9.59
2022-10-06T21:02:50.706Z,9.58
2022-10-06T21:05:17.130Z,9.51
2022-10-06T21:07:43.879Z,9.55
2022-10-06T21:10:10.397Z,9.49
2022-10-06T21:12:36.864Z,9.44
2022-10-06T21:15:03.740Z,9.37
2022-10-06T21:17:30.211Z,9.34
2022-10-06T21:19:56.593Z,9.41
2022-10-06T21:22:23.023Z,9.34
2022-10-06T21:24:49.481Z,9.33
2022-10-06T21:27:18.959Z,9.32
2022-10-06T21:29:45.357Z,9.31
2022-10-06T21:32:11.749Z,9.34
2022-10-06T21:34:39.318Z,9.28
2022-10-06T21:37:05.889Z,9.28
2022-10-06T21:39:32.278Z,9.25
2022-10-06T21:41:58.659Z,9.22
2022-10-06T21:44:25.116Z,9.19
2022-10-06T21:46:53.282Z,9.19
2022-10-06T21:49:23.660Z,9.20
2022-10-06T21:51:51.753Z,9.14
2022-10-06T21:54:18.565Z,9.16
2022-10-06T21:56:44.993Z,9.10
2022-10-06T21:59:11.513Z,9.10
2022-10-06T22:01:42.710Z,9.04
2022-10-06T22:04:09.419Z,9.02
2022-10-06T22:06:36.429Z,9.01
2022-10-06T22:09:03.528Z,8.93
2022-10-06T22:11:34.582Z,8.92
2022-10-06T22:14:02.702Z,8.89
2022-10-06T22:16:30.571Z,8.92
2022-10-06T22:18:57.018Z,8.87
2022-10-06T22:21:28.097Z,8.83
2022-10-06T22:24:02.002Z,8.80
2022-10-06T22:26:29.152Z,8.73
2022-10-06T22:28:56.362Z,8.71
2022-10-06T22:31:26.003Z,8.65
2022-10-06T22:33:57.508Z,8.63
2022-10-06T22:36:24.329Z,8.59
2022-10-06T22:38:50.759Z,8.64
2022-10-06T22:41:17.141Z,8.69
2022-10-06T22:43:43.546Z,8.71
2022-10-06T22:46:10.288Z,8.68
2022-10-06T22:48:36.808Z,8.60
2022-10-06T22:51:03.583Z,8.64
2022-10-06T22:53:31.243Z,8.63
2022-10-06T22:55:58.559Z,8.55
2022-10-06T22:58:25.156Z,8.51
2022-10-06T23:00:51.577Z,8.43
2022-10-06T23:03:18.243Z,8.40
2022-10-06T23:05:56.657Z,8.40
2022-10-06T23:08:23.438Z,8.26
2022-10-06T23:10:50.048Z,8.19
2022-10-06T23:13:16.405Z,8.16
2022-10-06T23:15:42.778Z,8.13
2022-10-06T23:18:09.297Z,8.11
2022-10-06T23:20:35.692Z,8.11
2022-10-06T23:23:02.156Z,8.15
2022-10-06T23:25:28.656Z,8.01
2022-10-06T23:27:55.128Z,8.09
2022-10-06T23:30:21.537Z,8.10
2022-10-06T23:32:47.896Z,8.04
2022-10-06T23:35:14.375Z,8.07
2022-10-06T23:37:40.801Z,8.11
2022-10-06T23:40:07.786Z,8.07
2022-10-06T23:42:34.249Z,8.04
2022-10-06T23:45:00.621Z,8.03
2022-10-06T23:47:27.009Z,8.02
2022-10-06T23:49:54.228Z,7.99
2022-10-06T23:52:20.613Z,7.98
2022-10-06T23:54:47.800Z,7.95
2022-10-06T23:57:14.201Z,7.88
2022-10-06T23:59:40.585Z,7.83
